createdAt,value
2022-08-01T00:03:26.064Z,98159.28
2022-08-01T00:05:52.988Z,98126.44
2022-08-01T00:08:20.059Z,98142.03
2022-08-01T00:10:46.946Z,98136.19
2022-08-01T00:13:14.318Z,98172.69
2022-08-01T00:15:41.258Z,98132.28
2022-08-01T00:18:20.875Z,98123.63
2022-08-01T00:20:48.015Z,98172.53
2022-08-01T00:23:15.037Z,98146.00
2022-08-01T00:25:41.875Z,98151.72
2022-08-01T00:28:12.217Z,98135.78
2022-08-01T00:30:41.383Z,98141.16
2022-08-01T00:33:08.328Z,98132.47
2022-08-01T00:35:35.284Z,98179.50
2022-08-01T00:38:02.147Z,98132.13
2022-08-01T00:40:29.164Z,98168.34
2022-08-01T00:42:55.954Z,98148.53
2022-08-01T00:45:22.888Z,98147.44
2022-08-01T00:47:55.155Z,98126.56
2022-08-01T00:50:22.478Z,98146.50
2022-08-01T00:52:52.330Z,98126.44
2022-08-01T00:55:20.084Z,98120.94
2022-08-01T00:58:04.927Z,98140.50
2022-08-01T01:00:52.156Z,98115.41
2022-08-01T01:03:23.589Z,98154.63
2022-08-01T01:06:34.568Z,98168.25
2022-08-01T01:09:16.996Z,98167.41
2022-08-01T01:12:05.554Z,98163.53
2022-08-01T01:14:47.524Z,98128.28
2022-08-01T01:17:31.419Z,98125.69
2022-08-01T01:20:07.254Z,98133.22
2022-08-01T01:22:59.639Z,98148.22
2022-08-01T01:25:38.703Z,98164.66
2022-08-01T01:28:22.103Z,98165.78
2022-08-01T01:30:54.051Z,98162.63
2022-08-01T01:33:24.589Z,98120.78
2022-08-01T01:35:59.019Z,98128.84
2022-08-01T01:38:29.375Z,98134.34
2022-08-01T01:40:58.446Z,98125.06
2022-08-01T01:43:28.766Z,98108.75
2022-08-01T01:46:01.501Z,98150.63
2022-08-01T01:48:30.041Z,98116.34
2022-08-01T01:50:58.727Z,98129.94
2022-08-01T01:53:28.179Z,98103.91
2022-08-01T01:55:59.056Z,98102.13
2022-08-01T01:58:28.461Z,98119.19
2022-08-01T02:00:57.697Z,98107.75
2022-08-01T02:03:27.746Z,98096.91
2022-08-01T02:05:56.145Z,98118.78
2022-08-01T02:08:24.729Z,98112.63
2022-08-01T02:11:26.696Z,98111.59
2022-08-01T02:14:03.876Z,98095.84
2022-08-01T02:16:37.029Z,98095.47
2022-08-01T02:19:04.271Z,98106.81
2022-08-01T02:21:38.772Z,98103.75
2022-08-01T02:24:18.064Z,98142.75
2022-08-01T02:26:51.722Z,98123.19
2022-08-01T02:29:25.245Z,98115.19
2022-08-01T02:31:55.865Z,98101.72
2022-08-01T02:34:26.701Z,98101.09
2022-08-01T02:36:55.818Z,98106.53
2022-08-01T02:39:24.540Z,98116.03
2022-08-01T02:41:58.512Z,98116.69
2022-08-01T02:44:29.871Z,98107.47
2022-08-01T02:47:05.912Z,98102.16
2022-08-01T02:49:36.731Z,98096.56
2022-08-01T02:52:08.483Z,98095.53
2022-08-01T02:54:39.816Z,98121.28
2022-08-01T02:57:08.555Z,98096.41
2022-08-01T02:59:41.313Z,98096.38
2022-08-01T03:02:10.970Z,98089.41
2022-08-01T03:04:40.923Z,98079.97
2022-08-01T03:07:10.435Z,98110.22
2022-08-01T03:09:41.564Z,98096.88
2022-08-01T03:12:14.873Z,98074.44
2022-08-01T03:14:43.909Z,98074.00
2022-08-01T03:17:12.632Z,98086.19
2022-08-01T03:19:41.108Z,98068.72
2022-08-01T03:22:12.418Z,98089.91
2022-08-01T03:24:41.557Z,98064.97
2022-08-01T03:27:10.292Z,98102.22
2022-08-01T03:29:40.616Z,98079.25
2022-08-01T03:32:08.780Z,98060.09
2022-08-01T03:34:35.943Z,98096.16
2022-08-01T03:37:54.287Z,98059.38
2022-08-01T03:40:36.645Z,98073.88
2022-08-01T03:43:06.758Z,98057.34
2022-08-01T03:45:39.429Z,98081.72
2022-08-01T03:48:14.423Z,98082.28
2022-08-01T03:50:49.437Z,98074.13
2022-08-01T03:53:22.489Z,98062.44
2022-08-01T03:55:50.736Z,98076.09
2022-08-01T03:58:21.764Z,98069.53
2022-08-01T04:00:52.270Z,98066.47
2022-08-01T04:03:19.681Z,98072.66
2022-08-01T04:05:49.426Z,98071.81
2022-08-01T04:08:16.174Z,98074.00
2022-08-01T04:10:43.213Z,98073.91
2022-08-01T04:13:09.967Z,98088.75
2022-08-01T04:15:36.759Z,98099.34
2022-08-01T04:18:03.626Z,98108.81
2022-08-01T04:20:31.044Z,98114.16
2022-08-01T04:22:57.823Z,98105.13
2022-08-01T04:25:34.553Z,98123.59
2022-08-01T04:28:05.248Z,98107.53
2022-08-01T04:30:35.902Z,98119.88
2022-08-01T04:33:07.741Z,98119.75
2022-08-01T04:36:02.740Z,98101.59
2022-08-01T04:38:30.771Z,98134.09
2022-08-01T04:40:58.264Z,98144.94
2022-08-01T04:43:24.915Z,98134.75
2022-08-01T04:45:52.541Z,98147.03
2022-08-01T04:48:22.692Z,98130.22
2022-08-01T04:50:50.142Z,98136.69
2022-08-01T04:53:18.493Z,98133.31
2022-08-01T04:55:49.805Z,98150.91
2022-08-01T04:58:18.654Z,98154.88
2022-08-01T05:00:46.018Z,98134.50
2022-08-01T05:03:12.683Z,98153.44
2022-08-01T05:05:39.361Z,98157.75
2022-08-01T05:08:07.299Z,98143.34
2022-08-01T05:10:35.084Z,98159.63
2022-08-01T05:13:01.852Z,98162.00
2022-08-01T05:15:28.470Z,98172.53
2022-08-01T05:17:55.557Z,98167.50
2022-08-01T05:20:22.365Z,98167.06
2022-08-01T05:22:49.095Z,98147.53
2022-08-01T05:25:19.949Z,98170.97
2022-08-01T05:27:50.943Z,98169.06
2022-08-01T05:30:18.869Z,98158.38
2022-08-01T05:32:45.700Z,98161.69
2022-08-01T05:35:12.703Z,98158.09
2022-08-01T05:37:39.774Z,98135.72
2022-08-01T05:40:07.413Z,98155.88
2022-08-01T05:42:34.397Z,98169.00
2022-08-01T05:45:01.031Z,98149.41
2022-08-01T05:47:27.593Z,98152.31
2022-08-01T05:49:54.191Z,98166.88
2022-08-01T05:52:20.724Z,98170.53
2022-08-01T05:54:50.175Z,98179.09
2022-08-01T05:57:19.868Z,98186.09
2022-08-01T05:59:47.377Z,98178.13
2022-08-01T06:02:14.191Z,98187.34
2022-08-01T06:04:40.871Z,98188.38
2022-08-01T06:07:07.408Z,98187.22
2022-08-01T06:09:34.090Z,98184.41
2022-08-01T06:12:00.636Z,98184.69
2022-08-01T06:14:27.162Z,98191.09
2022-08-01T06:16:53.711Z,98192.31
2022-08-01T06:19:20.249Z,98190.88
2022-08-01T06:21:47.407Z,98189.84
2022-08-01T06:24:13.979Z,98189.31
2022-08-01T06:26:40.545Z,98191.59
2022-08-01T06:29:07.130Z,98192.09
2022-08-01T06:31:36.531Z,98190.88
2022-08-01T06:34:03.117Z,98191.50
2022-08-01T06:36:29.677Z,98193.03
2022-08-01T06:38:56.201Z,98191.00
2022-08-01T06:41:22.751Z,98180.94
2022-08-01T06:43:49.376Z,98186.63
2022-08-01T06:46:15.996Z,98190.81
2022-08-01T06:48:43.663Z,98185.78
2022-08-01T06:51:10.314Z,98183.75
2022-08-01T06:53:38.082Z,98185.34
2022-08-01T06:56:06.009Z,98190.63
2022-08-01T06:58:32.726Z,98191.13
2022-08-01T07:00:59.548Z,98180.19
2022-08-01T07:03:27.706Z,98182.53
2022-08-01T07:06:13.827Z,98180.75
2022-08-01T07:08:41.893Z,98183.31
2022-08-01T07:11:08.946Z,98172.63
2022-08-01T07:13:36.788Z,98173.00
2022-08-01T07:16:10.781Z,98173.31
2022-08-01T07:18:37.392Z,98172.84
2022-08-01T07:21:04.902Z,98177.19
2022-08-01T07:23:33.921Z,98168.88
2022-08-01T07:26:04.763Z,98175.84
2022-08-01T07:28:31.816Z,98182.91
2022-08-01T07:30:58.412Z,98181.56
2022-08-01T07:33:24.967Z,98176.09
2022-08-01T07:35:51.702Z,98178.47
2022-08-01T07:38:21.043Z,98173.44
2022-08-01T07:40:50.481Z,98173.91
2022-08-01T07:43:19.419Z,98176.28
2022-08-01T07:45:46.642Z,98170.66
2022-08-01T07:48:13.515Z,98159.81
2022-08-01T07:50:40.075Z,98153.28
2022-08-01T07:53:06.982Z,98161.97
2022-08-01T07:55:33.674Z,98160.66
2022-08-01T07:58:00.286Z,98154.34
2022-08-01T08:00:36.125Z,98158.56
2022-08-01T08:03:02.933Z,98160.56
2022-08-01T08:05:58.405Z,98161.78
2022-08-01T08:08:18.191Z,98158.22
2022-08-01T08:10:45.150Z,98141.16
2022-08-01T08:13:11.760Z,98139.53
2022-08-01T08:15:38.679Z,98159.66
2022-08-01T08:18:05.484Z,98154.97
2022-08-01T08:20:32.105Z,98150.03
2022-08-01T08:22:59.690Z,98156.16
2022-08-01T08:25:26.969Z,98156.66
2022-08-01T08:27:54.397Z,98155.41
2022-08-01T08:30:21.863Z,98159.28
2022-08-01T08:32:48.932Z,98145.47
2022-08-01T08:35:20.089Z,98151.75
2022-08-01T08:37:49.978Z,98134.66
2022-08-01T08:40:19.115Z,98149.44
2022-08-01T08:42:48.456Z,98137.91
2022-08-01T08:45:15.156Z,98149.31
2022-08-01T08:47:43.411Z,98153.81
2022-08-01T08:50:10.620Z,98154.38
2022-08-01T08:52:39.511Z,98148.09
2022-08-01T08:55:06.865Z,98137.22
2022-08-01T08:57:33.825Z,98154.69
2022-08-01T09:00:01.095Z,98135.03
2022-08-01T09:02:27.698Z,98142.28
2022-08-01T09:04:54.756Z,98134.56
2022-08-01T09:07:21.585Z,98147.53
2022-08-01T09:09:51.693Z,98155.44
2022-08-01T09:12:19.675Z,98148.56
2022-08-01T09:14:48.402Z,98153.00
2022-08-01T09:17:15.088Z,98148.16
2022-08-01T09:19:50.351Z,98148.34
2022-08-01T09:22:30.099Z,98156.88
2022-08-01T09:25:06.604Z,98150.34
2022-08-01T09:27:44.379Z,98134.19
2022-08-01T09:30:19.139Z,98146.44
2022-08-01T09:32:59.411Z,98154.94
2022-08-01T09:35:31.109Z,98153.00
2022-08-01T09:38:18.467Z,98156.06
2022-08-01T09:40:58.250Z,98142.16
2022-08-01T09:43:32.455Z,98143.22
2022-08-01T09:46:00.968Z,98148.94
2022-08-01T09:48:29.854Z,98137.84
2022-08-01T09:51:03.914Z,98148.94
2022-08-01T09:53:52.347Z,98148.94
2022-08-01T09:56:22.069Z,98131.91
2022-08-01T09:58:59.933Z,98138.25
2022-08-01T10:01:36.697Z,98140.13
2022-08-01T10:04:25.290Z,98146.06
2022-08-01T10:06:55.466Z,98155.66
2022-08-01T10:09:35.915Z,98133.69
2022-08-01T10:12:09.000Z,98135.03
2022-08-01T10:14:42.609Z,98119.56
2022-08-01T10:17:19.855Z,98124.94
2022-08-01T10:19:50.534Z,98116.47
2022-08-01T10:22:24.652Z,98127.03
2022-08-01T10:24:56.484Z,98127.41
2022-08-01T10:27:39.550Z,98114.38
2022-08-01T10:30:19.700Z,98121.22
2022-08-01T10:32:55.645Z,98115.16
2022-08-01T10:35:47.279Z,98116.97
2022-08-01T10:38:13.443Z,98111.03
2022-08-01T10:40:41.453Z,98117.13
2022-08-01T10:43:10.160Z,98119.41
2022-08-01T10:45:37.215Z,98103.34
2022-08-01T10:48:20.898Z,98108.75
2022-08-01T10:50:54.399Z,98099.56
2022-08-01T10:53:24.004Z,98096.28
2022-08-01T10:56:02.400Z,98093.69
2022-08-01T10:58:42.688Z,98102.16
2022-08-01T11:01:30.081Z,98092.81
2022-08-01T11:04:16.494Z,98098.84
2022-08-01T11:06:54.659Z,98087.56
2022-08-01T11:09:42.590Z,98090.94
2022-08-01T11:12:14.558Z,98093.75
2022-08-01T11:14:59.817Z,98092.88
2022-08-01T11:17:45.117Z,98081.16
2022-08-01T11:20:15.951Z,98066.97
2022-08-01T11:23:03.230Z,98077.53
2022-08-01T11:26:06.723Z,98069.44
2022-08-01T11:28:38.443Z,98062.78
2022-08-01T11:31:11.387Z,98064.25
2022-08-01T11:33:40.760Z,98062.50
2022-08-01T11:36:36.859Z,98069.06
2022-08-01T11:39:13.068Z,98061.06
2022-08-01T11:41:41.807Z,98061.31
2022-08-01T11:44:11.703Z,98056.00
2022-08-01T11:47:02.404Z,98054.22
2022-08-01T11:49:38.817Z,98052.31
2022-08-01T11:52:31.447Z,98059.44
2022-08-01T11:55:11.543Z,98044.28
2022-08-01T11:57:41.487Z,98044.09
2022-08-01T12:00:15.398Z,98051.22
2022-08-01T12:02:46.140Z,98028.78
2022-08-01T12:05:24.734Z,98030.69
2022-08-01T12:07:52.798Z,98037.25
2022-08-01T12:10:21.358Z,98040.28
2022-08-01T12:12:52.978Z,98039.03
2022-08-01T12:15:25.088Z,98017.91
2022-08-01T12:17:59.571Z,98028.88
2022-08-01T12:20:32.287Z,98033.66
2022-08-01T12:23:01.307Z,98022.06
2022-08-01T12:25:28.231Z,98012.25
2022-08-01T12:27:56.864Z,98014.19
2022-08-01T12:30:25.445Z,98011.38
2022-08-01T12:32:53.603Z,98004.09
2022-08-01T12:35:25.752Z,98021.69
2022-08-01T12:37:56.518Z,98015.38
2022-08-01T12:40:25.956Z,98008.41
2022-08-01T12:42:55.582Z,98011.09
2022-08-01T12:45:27.688Z,98012.94
2022-08-01T12:47:55.198Z,98013.31
2022-08-01T12:50:26.560Z,98019.56
2022-08-01T12:53:16.943Z,98017.22
2022-08-01T12:55:59.542Z,98015.81
2022-08-01T12:58:34.451Z,98024.03
2022-08-01T13:01:09.619Z,98017.03
2022-08-01T13:03:36.561Z,98024.00
2022-08-01T13:06:15.869Z,98009.34
2022-08-01T13:08:42.823Z,98013.97
2022-08-01T13:11:15.620Z,98007.00
2022-08-01T13:13:50.451Z,98012.38
2022-08-01T13:16:27.953Z,98002.66
2022-08-01T13:19:05.841Z,97995.19
2022-08-01T13:21:34.436Z,97998.72
2022-08-01T13:24:24.890Z,98001.50
2022-08-01T13:27:01.679Z,98007.88
2022-08-01T13:29:39.031Z,98008.69
2022-08-01T13:32:28.709Z,98001.03
2022-08-01T13:35:05.850Z,98010.31
2022-08-01T13:37:32.611Z,98016.59
2022-08-01T13:39:59.280Z,98024.13
2022-08-01T13:42:25.960Z,98006.94
2022-08-01T13:44:52.576Z,98005.63
2022-08-01T13:47:31.127Z,98006.69
2022-08-01T13:50:01.586Z,98011.16
2022-08-01T13:52:29.376Z,98008.25
2022-08-01T13:54:56.039Z,98009.13
2022-08-01T13:57:22.893Z,97995.91
2022-08-01T13:59:49.753Z,97989.16
2022-08-01T14:02:16.345Z,97992.81
2022-08-01T14:04:43.272Z,98008.47
2022-08-01T14:07:14.812Z,98003.34
2022-08-01T14:09:57.827Z,97997.38
2022-08-01T14:12:29.636Z,97996.88
2022-08-01T14:14:56.264Z,97991.94
2022-08-01T14:17:22.897Z,97996.59
2022-08-01T14:19:49.895Z,97989.09
2022-08-01T14:22:16.503Z,97993.47
2022-08-01T14:24:43.250Z,97995.16
2022-08-01T14:27:11.229Z,97993.59
2022-08-01T14:30:02.868Z,97990.72
2022-08-01T14:32:26.010Z,97998.56
2022-08-01T14:34:55.973Z,97990.50
2022-08-01T14:37:22.571Z,97982.56
2022-08-01T14:39:56.235Z,97984.22
2022-08-01T14:42:24.282Z,98010.72
2022-08-01T14:44:51.701Z,98009.97
2022-08-01T14:47:21.816Z,98004.13
2022-08-01T14:49:52.231Z,97991.19
2022-08-01T14:52:21.709Z,97994.41
2022-08-01T14:54:48.672Z,97989.31
2022-08-01T14:57:21.172Z,97990.81
2022-08-01T14:59:48.118Z,97997.00
2022-08-01T15:02:18.033Z,97999.13
2022-08-01T15:04:48.608Z,97998.31
2022-08-01T15:07:16.658Z,98004.72
2022-08-01T15:09:43.965Z,97996.06
2022-08-01T15:12:11.657Z,98006.03
2022-08-01T15:14:53.618Z,97995.53
2022-08-01T15:17:25.211Z,97989.75
2022-08-01T15:19:54.085Z,97989.06
2022-08-01T15:22:24.937Z,98003.19
2022-08-01T15:24:57.474Z,97997.25
2022-08-01T15:27:25.352Z,97993.53
2022-08-01T15:29:55.295Z,97986.41
2022-08-01T15:32:22.445Z,98003.25
2022-08-01T15:34:52.303Z,98006.75
2022-08-01T15:37:20.345Z,98009.50
2022-08-01T15:39:47.092Z,97997.53
2022-08-01T15:42:19.959Z,98019.91
2022-08-01T15:44:51.905Z,98012.47
2022-08-01T15:47:18.572Z,98009.72
2022-08-01T15:49:45.683Z,97999.78
2022-08-01T15:52:21.415Z,98006.97
2022-08-01T15:54:49.538Z,97983.09
2022-08-01T15:57:16.218Z,97997.47
2022-08-01T15:59:42.835Z,98007.50
2022-08-01T16:02:09.897Z,97990.25
2022-08-01T16:04:38.810Z,98009.16
2022-08-01T16:07:06.327Z,98008.84
2022-08-01T16:09:33.023Z,98004.59
2022-08-01T16:11:59.846Z,98001.63
2022-08-01T16:14:26.441Z,98015.41
2022-08-01T16:17:03.414Z,97982.91
2022-08-01T16:19:30.026Z,98006.88
2022-08-01T16:21:56.625Z,97996.16
2022-08-01T16:24:23.769Z,97996.63
2022-08-01T16:26:52.830Z,97994.94
2022-08-01T16:29:21.121Z,97996.69
2022-08-01T16:32:01.460Z,98000.97
2022-08-01T16:34:35.133Z,98007.50
2022-08-01T16:37:02.972Z,98008.84
2022-08-01T16:39:34.016Z,98007.34
2022-08-01T16:42:01.772Z,98011.09
2022-08-01T16:44:33.865Z,98008.03
2022-08-01T16:47:03.614Z,98011.41
2022-08-01T16:49:32.016Z,98007.47
2022-08-01T16:51:58.915Z,97998.91
2022-08-01T16:54:26.428Z,98000.81
2022-08-01T16:56:54.071Z,97994.34
2022-08-01T16:59:23.584Z,98010.03
2022-08-01T17:01:59.495Z,98004.88
2022-08-01T17:04:34.779Z,97997.25
2022-08-01T17:07:01.462Z,98005.19
2022-08-01T17:09:28.089Z,97990.25
2022-08-01T17:11:54.620Z,97986.19
2022-08-01T17:14:21.490Z,97998.94
2022-08-01T17:16:48.366Z,98012.28
2022-08-01T17:19:15.072Z,98005.09
2022-08-01T17:21:42.423Z,98014.13
2022-08-01T17:24:09.759Z,98003.75
2022-08-01T17:26:36.432Z,97995.16
2022-08-01T17:29:05.229Z,97993.22
2022-08-01T17:31:32.108Z,98014.38
2022-08-01T17:33:58.770Z,97997.34
2022-08-01T17:36:25.399Z,98016.63
2022-08-01T17:38:52.041Z,98001.56
2022-08-01T17:41:18.710Z,98017.63
2022-08-01T17:43:45.400Z,98005.56
2022-08-01T17:46:12.074Z,98021.91
2022-08-01T17:48:38.751Z,98001.03
2022-08-01T17:51:06.534Z,98016.72
2022-08-01T17:53:33.725Z,97995.50
2022-08-01T17:56:02.532Z,97985.00
2022-08-01T17:58:48.871Z,98029.41
2022-08-01T18:01:18.314Z,97993.63
2022-08-01T18:03:45.921Z,98025.25
2022-08-01T18:06:15.742Z,98038.75
2022-08-01T18:08:42.997Z,98024.28
2022-08-01T18:11:09.900Z,98042.53
2022-08-01T18:13:40.605Z,98040.72
2022-08-01T18:16:11.028Z,98037.69
2022-08-01T18:18:38.767Z,98046.84
2022-08-01T18:21:06.402Z,98041.00
2022-08-01T18:23:34.067Z,98048.47
2022-08-01T18:26:02.653Z,98047.78
2022-08-01T18:28:37.938Z,98046.00
2022-08-01T18:31:08.649Z,98056.41
2022-08-01T18:33:36.235Z,98057.31
2022-08-01T18:36:04.535Z,98056.31
2022-08-01T18:38:35.244Z,98049.84
2022-08-01T18:41:06.357Z,98048.59
2022-08-01T18:43:33.390Z,98052.16
2022-08-01T18:46:02.227Z,98065.81
2022-08-01T18:48:30.177Z,98067.63
2022-08-01T18:50:56.993Z,98055.97
2022-08-01T18:53:26.569Z,98063.44
2022-08-01T18:55:53.281Z,98050.63
2022-08-01T18:58:20.650Z,98066.75
2022-08-01T19:00:47.513Z,98062.44
2022-08-01T19:03:15.428Z,98074.75
2022-08-01T19:05:42.274Z,98068.84
2022-08-01T19:08:09.482Z,98078.19
2022-08-01T19:10:36.422Z,98071.97
2022-08-01T19:13:03.612Z,98072.25
2022-08-01T19:15:30.415Z,98072.25
2022-08-01T19:17:57.009Z,98075.28
2022-08-01T19:20:23.591Z,98078.06
2022-08-01T19:22:50.487Z,98082.69
2022-08-01T19:25:17.118Z,98092.28
2022-08-01T19:27:47.703Z,98083.03
2022-08-01T19:30:15.240Z,98096.13
2022-08-01T19:32:47.005Z,98090.41
2022-08-01T19:35:16.828Z,98098.84
2022-08-01T19:37:47.169Z,98098.88
2022-08-01T19:40:26.070Z,98091.81
2022-08-01T19:42:54.094Z,98106.78
2022-08-01T19:45:21.675Z,98104.03
2022-08-01T19:47:56.344Z,98102.13
2022-08-01T19:50:25.810Z,98113.28
2022-08-01T19:52:55.111Z,98111.41
2022-08-01T19:55:23.528Z,98113.56
2022-08-01T19:58:10.570Z,98113.53
2022-08-01T20:00:40.340Z,98123.88
2022-08-01T20:03:08.156Z,98127.69
2022-08-01T20:05:36.466Z,98126.06
2022-08-01T20:08:03.385Z,98126.03
2022-08-01T20:10:32.349Z,98128.22
2022-08-01T20:12:59.022Z,98135.53
2022-08-01T20:15:26.058Z,98130.06
2022-08-01T20:17:52.678Z,98135.47
2022-08-01T20:20:19.280Z,98136.56
2022-08-01T20:22:48.801Z,98128.84
2022-08-01T20:25:23.695Z,98146.47
2022-08-01T20:27:55.845Z,98150.25
2022-08-01T20:30:26.270Z,98147.75
2022-08-01T20:32:53.838Z,98151.53
2022-08-01T20:35:53.494Z,98150.72
2022-08-01T20:38:17.596Z,98145.75
2022-08-01T20:40:45.681Z,98151.19
2022-08-01T20:43:13.858Z,98163.13
2022-08-01T20:45:47.052Z,98146.25
2022-08-01T20:48:15.840Z,98150.84
2022-08-01T20:51:03.818Z,98150.22
2022-08-01T20:53:32.627Z,98161.09
2022-08-01T20:56:02.049Z,98172.75
2022-08-01T20:59:06.887Z,98171.09
2022-08-01T21:01:48.557Z,98168.28
2022-08-01T21:04:37.232Z,98178.84
2022-08-01T21:07:08.909Z,98157.81
2022-08-01T21:09:39.359Z,98165.34
2022-08-01T21:12:08.803Z,98158.25
2022-08-01T21:14:51.161Z,98168.81
2022-08-01T21:17:41.916Z,98171.75
2022-08-01T21:20:12.071Z,98168.22
2022-08-01T21:22:53.080Z,98177.44
2022-08-01T21:25:26.326Z,98175.78
2022-08-01T21:27:55.121Z,98170.81
2022-08-01T21:30:25.079Z,98186.88
2022-08-01T21:32:55.629Z,98179.28
2022-08-01T21:35:25.006Z,98171.59
2022-08-01T21:37:53.081Z,98179.75
2022-08-01T21:40:24.357Z,98166.41
2022-08-01T21:42:54.546Z,98182.25
2022-08-01T21:45:25.891Z,98184.34
2022-08-01T21:47:53.182Z,98185.94
2022-08-01T21:50:20.955Z,98178.59
2022-08-01T21:53:06.523Z,98178.50
2022-08-01T21:56:15.142Z,98181.44
2022-08-01T21:58:52.344Z,98171.94
2022-08-01T22:01:27.237Z,98184.66
2022-08-01T22:03:59.139Z,98168.56
2022-08-01T22:06:28.694Z,98161.44
2022-08-01T22:09:03.261Z,98173.09
2022-08-01T22:11:31.784Z,98187.19
2022-08-01T22:14:01.924Z,98168.66
2022-08-01T22:16:31.829Z,98184.31
2022-08-01T22:19:00.593Z,98175.25
2022-08-01T22:21:27.701Z,98159.94
2022-08-01T22:23:54.621Z,98182.25
2022-08-01T22:26:29.157Z,98184.03
2022-08-01T22:28:59.712Z,98171.72
2022-08-01T22:31:27.178Z,98150.84
2022-08-01T22:33:54.812Z,98168.97
2022-08-01T22:36:25.559Z,98181.69
2022-08-01T22:38:52.143Z,98179.34
2022-08-01T22:41:24.610Z,98167.72
2022-08-01T22:44:08.477Z,98179.94
2022-08-01T22:46:55.422Z,98172.69
2022-08-01T22:49:37.603Z,98190.41
2022-08-01T22:52:20.758Z,98193.31
2022-08-01T22:55:16.993Z,98189.63
2022-08-01T22:57:59.317Z,98194.72
2022-08-01T23:00:31.523Z,98192.19
2022-08-01T23:03:14.561Z,98189.91
2022-08-01T23:06:01.907Z,98197.75
2022-08-01T23:08:29.956Z,98198.47
2022-08-01T23:10:56.564Z,98177.19
2022-08-01T23:13:23.943Z,98172.78
2022-08-01T23:15:52.214Z,98188.50
2022-08-01T23:18:21.122Z,98177.19
2022-08-01T23:20:51.735Z,98173.25
2022-08-01T23:23:30.620Z,98187.97
2022-08-01T23:25:59.298Z,98185.78
2022-08-01T23:28:27.435Z,98173.59
2022-08-01T23:30:54.505Z,98184.47
2022-08-01T23:33:24.238Z,98173.25
2022-08-01T23:35:53.888Z,98195.44
2022-08-01T23:38:24.148Z,98178.97
2022-08-01T23:40:53.900Z,98187.63
2022-08-01T23:43:23.114Z,98173.59
2022-08-01T23:46:03.818Z,98179.97
2022-08-01T23:48:34.909Z,98173.53
2022-08-01T23:51:02.370Z,98154.56
2022-08-01T23:53:31.027Z,98181.41
2022-08-01T23:55:58.820Z,98156.19
2022-08-01T23:58:25.521Z,98172.28
